マドリード/バラハス の空港の天気 - METARとTAF

マドリード・バラハス国際空港 ( LEMD / MAD ) - スペイン マドリード
飛行場実況気象(Metar)
観測時間02/21 03:00 CET (02/21 02:00 UTC)
風向・風速北 2m/s
視程10km以上
天気現象
なし
気温3℃
湿度87%
気圧1026hPa
METARLEMD 210200Z 36003KT CAVOK 03/01 Q1026 NOSIG
過去の天気等 Google飛行場航空写真 Wunderground天気予報

過去48時間のMETAR

飛行場予報(TAF)
発表時間: 2/21 00:00 CET (2/20 23:00 UTC)
予報対象時間: 21日1時 CET ~ 22日7時 CET
風向・風速北北西 3m/s
視程10km以上
なし
21日13時 CET ~ 21日20時 CET に一時的に
風向・風速南南西 4m/s
TAF LEMD 202300Z 2100/2206 33005KT CAVOK TX19/2115Z TNM00/2106Z
TEMPO 2112/2119 20007KT